Time;durP1;ratioP1;P1;durP2;ratioP2;P2;SDS_P1;SDS_P2;PMS_P1;PMS_P2;Temp;Humidity;BMP_temperature;BMP_pressure;BME280_temperature;BME280_humidity;BME280_pressure;Samples;Min_cycle;Max_cycle;Signal;HPM_P1;HPM_P2
2022/02/25 00:00:32;;;;;;;5.30;2.60;;;24.00;33.00;;;;;;6131026;28;80718;-63
2022/02/25 00:03:32;;;;;;;6.07;2.95;;;24.00;33.20;;;;;;6135182;28;80687;-63
2022/02/25 00:06:33;;;;;;;6.90;3.13;;;23.90;33.10;;;;;;6134536;28;80876;-63
2022/02/25 00:09:34;;;;;;;10.05;3.97;;;24.00;33.10;;;;;;6133960;28;80483;-64
2022/02/25 00:12:34;;;;;;;6.00;2.83;;;23.90;33.00;;;;;;6138909;28;80390;-63
2022/02/25 00:15:35;;;;;;;5.15;3.05;;;23.90;33.00;;;;;;6136223;28;81553;-64
2022/02/25 00:18:35;;;;;;;6.47;2.95;;;23.90;32.80;;;;;;6149793;28;80452;-63
2022/02/25 00:21:36;;;;;;;4.88;2.88;;;23.90;32.80;;;;;;6128619;28;80979;-63
2022/02/25 00:24:36;;;;;;;6.57;2.67;;;23.90;32.90;;;;;;6155719;28;82618;-63
2022/02/25 00:27:37;;;;;;;5.20;2.72;;;23.90;33.00;;;;;;6152022;28;80424;-63
2022/02/25 00:30:38;;;;;;;5.07;2.63;;;23.90;32.90;;;;;;6140606;28;80631;-63
2022/02/25 00:33:38;;;;;;;5.07;2.72;;;23.90;32.70;;;;;;6135192;28;80925;-63
2022/02/25 00:36:39;;;;;;;4.05;2.50;;;23.90;32.90;;;;;;6143341;28;83244;-63
2022/02/25 00:39:39;;;;;;;4.88;2.63;;;23.90;33.10;;;;;;6154044;28;80470;-63
2022/02/25 00:42:40;;;;;;;5.03;2.70;;;23.90;32.90;;;;;;6135843;28;80564;-63
2022/02/25 00:45:41;;;;;;;5.20;2.85;;;23.90;32.80;;;;;;6126248;28;80922;-63
2022/02/25 00:48:41;;;;;;;5.22;2.80;;;23.80;32.80;;;;;;6157938;28;80272;-62
2022/02/25 00:51:42;;;;;;;5.20;2.35;;;23.80;32.90;;;;;;6131512;28;80578;-63
2022/02/25 00:54:44;;;;;;;4.85;2.80;;;23.80;32.80;;;;;;6156418;28;80278;-64
2022/02/25 00:57:44;;;;;;;5.10;2.60;;;23.80;32.90;;;;;;6123644;28;82332;-63
2022/02/25 01:00:45;;;;;;;4.57;2.72;;;23.80;32.90;;;;;;6142157;28;81557;-63
2022/02/25 01:03:46;;;;;;;3.92;2.28;;;23.80;32.80;;;;;;6159378;28;80537;-63
2022/02/25 01:06:46;;;;;;;4.03;2.22;;;23.80;33.00;;;;;;6148432;28;81713;-63
2022/02/25 01:09:47;;;;;;;5.18;2.50;;;23.80;32.90;;;;;;6157096;28;80335;-64
2022/02/25 01:12:48;;;;;;;6.07;2.78;;;23.80;32.80;;;;;;6145044;28;81833;-63
2022/02/25 01:15:48;;;;;;;6.05;2.50;;;23.80;32.80;;;;;;6142891;28;80423;-64
2022/02/25 01:18:49;;;;;;;6.57;2.60;;;23.80;32.80;;;;;;6131989;28;80453;-64
2022/02/25 01:21:49;;;;;;;4.35;2.42;;;23.80;33.00;;;;;;6127239;28;80740;-63
2022/02/25 01:24:50;;;;;;;4.22;2.35;;;23.80;33.00;;;;;;6153129;28;80834;-64
2022/02/25 01:27:50;;;;;;;4.22;2.30;;;23.70;33.30;;;;;;6122224;28;80787;-63
2022/02/25 01:30:51;;;;;;;4.82;3.00;;;23.80;33.30;;;;;;6151981;28;80309;-64
2022/02/25 01:33:51;;;;;;;4.28;2.50;;;23.80;33.20;;;;;;6151934;28;82621;-63
2022/02/25 01:36:52;;;;;;;6.22;2.72;;;23.70;33.30;;;;;;6141191;28;84970;-64
2022/02/25 01:39:52;;;;;;;3.20;2.30;;;23.70;33.50;;;;;;6139618;28;80075;-64
2022/02/25 01:42:53;;;;;;;3.78;2.22;;;23.70;33.40;;;;;;6146805;28;80845;-64
2022/02/25 01:45:53;;;;;;;4.72;2.30;;;23.70;33.80;;;;;;6153999;28;80989;-64
2022/02/25 01:48:54;;;;;;;5.40;2.58;;;23.70;33.80;;;;;;6137196;28;80158;-64
2022/02/25 01:51:55;;;;;;;5.30;2.45;;;23.70;33.70;;;;;;6137713;28;82055;-64
2022/02/25 01:54:55;;;;;;;4.13;2.40;;;23.70;33.70;;;;;;6145321;28;80607;-64
2022/02/25 01:57:56;;;;;;;3.83;2.25;;;23.70;33.90;;;;;;6153855;28;80746;-64
2022/02/25 02:00:59;;;;;;;4.22;2.40;;;23.70;33.90;;;;;;6155330;28;82805;-65
2022/02/25 02:04:00;;;;;;;3.38;2.13;;;23.70;34.10;;;;;;6136252;28;81130;-64
2022/02/25 02:07:01;;;;;;;5.78;2.63;;;23.70;33.90;;;;;;6124034;28;81259;-64
2022/02/25 02:10:01;;;;;;;4.05;2.42;;;23.70;33.50;;;;;;6135544;28;80840;-64
2022/02/25 02:13:02;;;;;;;4.85;2.05;;;23.70;33.30;;;;;;6135281;28;80464;-63
2022/02/25 02:16:02;;;;;;;3.33;1.80;;;23.70;33.30;;;;;;6154069;28;80484;-64
2022/02/25 02:19:03;;;;;;;3.03;1.98;;;23.70;33.40;;;;;;6128895;28;80375;-64
2022/02/25 02:22:03;;;;;;;3.85;2.15;;;23.70;33.30;;;;;;6145847;28;80381;-64
2022/02/25 02:25:04;;;;;;;3.42;2.67;;;23.70;33.40;;;;;;6130566;28;80405;-64
2022/02/25 02:28:21;;;;;;;3.35;2.17;;;23.70;33.50;;;;;;6140336;28;80284;-64
2022/02/25 02:31:22;;;;;;;3.45;2.20;;;23.70;33.40;;;;;;6143066;28;81336;-64
2022/02/25 02:34:22;;;;;;;3.72;2.38;;;23.70;33.40;;;;;;6138290;28;80550;-64
2022/02/25 02:37:23;;;;;;;4.10;2.38;;;23.70;33.30;;;;;;6142165;28;80390;-63
2022/02/25 02:40:23;;;;;;;3.80;1.95;;;23.70;33.40;;;;;;6152092;28;80345;-63
2022/02/25 02:43:24;;;;;;;2.65;1.95;;;23.70;33.40;;;;;;6135295;28;80667;-64
2022/02/25 02:46:24;;;;;;;5.78;2.33;;;23.70;33.40;;;;;;6151114;28;80313;-64
2022/02/25 02:49:25;;;;;;;3.45;2.20;;;23.70;33.40;;;;;;6143241;28;81173;-64
2022/02/25 02:52:25;;;;;;;3.85;2.45;;;23.60;33.20;;;;;;6148815;28;80869;-64
2022/02/25 02:55:25;;;;;;;4.03;2.30;;;23.60;33.30;;;;;;6136256;28;83310;-64
2022/02/25 02:58:26;;;;;;;3.78;2.55;;;23.70;33.30;;;;;;6141297;28;80925;-64
2022/02/25 03:01:26;;;;;;;4.40;2.50;;;23.70;33.50;;;;;;6147714;28;81667;-64
2022/02/25 03:04:27;;;;;;;3.53;2.30;;;23.60;33.40;;;;;;6154555;28;80453;-64
2022/02/25 03:07:27;;;;;;;5.10;2.63;;;23.70;33.60;;;;;;6142556;28;80109;-64
2022/02/25 03:10:28;;;;;;;4.18;2.38;;;23.70;33.60;;;;;;6130398;28;81473;-64
2022/02/25 03:13:29;;;;;;;2.95;1.98;;;23.70;33.70;;;;;;6127650;28;80729;-64
2022/02/25 03:16:30;;;;;;;6.40;2.85;;;23.70;34.00;;;;;;6140535;28;80514;-64
2022/02/25 03:19:31;;;;;;;5.10;2.40;;;23.70;34.00;;;;;;6140895;28;80841;-64
2022/02/25 03:22:31;;;;;;;5.38;2.28;;;23.70;34.00;;;;;;6149343;28;80656;-64
2022/02/25 03:25:32;;;;;;;3.85;2.47;;;23.70;34.10;;;;;;6151282;28;81493;-65
2022/02/25 03:28:32;;;;;;;3.85;2.33;;;23.70;34.10;;;;;;6134460;28;80895;-64
2022/02/25 03:31:33;;;;;;;3.13;2.00;;;23.70;34.10;;;;;;6150568;28;80477;-64
2022/02/25 03:34:33;;;;;;;4.80;2.40;;;23.70;34.00;;;;;;6132513;28;80445;-64
2022/02/25 03:37:34;;;;;;;3.70;2.38;;;23.70;34.20;;;;;;6146301;28;80229;-64
2022/02/25 03:40:34;;;;;;;3.45;2.28;;;23.60;34.00;;;;;;6144189;28;80794;-64
2022/02/25 03:43:35;;;;;;;5.95;3.15;;;23.60;34.00;;;;;;6145310;28;81845;-64
2022/02/25 03:46:35;;;;;;;3.83;2.08;;;23.60;34.00;;;;;;6135969;28;80136;-64
2022/02/25 03:49:36;;;;;;;5.65;2.50;;;23.60;34.20;;;;;;6127615;28;83370;-64
2022/02/25 03:52:37;;;;;;;6.55;2.42;;;23.60;34.20;;;;;;6146933;28;81007;-64
2022/02/25 03:55:37;;;;;;;2.65;2.05;;;23.60;34.20;;;;;;6148388;28;80723;-64
2022/02/25 03:58:38;;;;;;;4.60;1.95;;;23.60;34.30;;;;;;6148934;28;80486;-64
2022/02/25 04:01:38;;;;;;;3.92;2.25;;;23.60;34.10;;;;;;6149889;28;80463;-64
2022/02/25 04:04:39;;;;;;;3.20;2.20;;;23.60;33.90;;;;;;6127075;28;83750;-64
2022/02/25 04:07:39;;;;;;;5.40;2.20;;;23.60;34.00;;;;;;6132973;28;80523;-64
2022/02/25 04:10:40;;;;;;;7.97;2.22;;;23.60;34.00;;;;;;6133695;28;81217;-62
2022/02/25 04:13:41;;;;;;;4.43;2.40;;;23.60;34.00;;;;;;6146827;28;82341;-62
2022/02/25 04:16:41;;;;;;;3.40;2.03;;;23.60;33.90;;;;;;6132706;28;81227;-62
2022/02/25 04:19:42;;;;;;;3.33;2.30;;;23.60;35.10;;;;;;6135671;28;80881;-62
2022/02/25 04:22:42;;;;;;;3.17;2.05;;;23.70;35.40;;;;;;6152195;28;80343;-62
2022/02/25 04:25:43;;;;;;;3.25;2.35;;;23.70;34.80;;;;;;6149445;28;80938;-62
2022/02/25 04:28:43;;;;;;;4.72;2.90;;;23.70;34.70;;;;;;6140031;28;80395;-62
2022/02/25 04:31:44;;;;;;;6.43;3.30;;;23.70;34.40;;;;;;6122616;28;80433;-64
2022/02/25 04:34:45;;;;;;;3.42;2.50;;;23.80;34.20;;;;;;6129438;28;80442;-63
2022/02/25 04:37:45;;;;;;;5.53;2.80;;;23.80;33.90;;;;;;6123100;28;80909;-63
2022/02/25 04:40:46;;;;;;;4.78;2.72;;;23.80;33.70;;;;;;6127788;28;83586;-62
2022/02/25 04:43:46;;;;;;;6.45;2.70;;;23.90;33.70;;;;;;6123830;28;80532;-61
2022/02/25 04:46:47;;;;;;;5.65;2.65;;;23.90;33.50;;;;;;6152195;28;81768;-63
2022/02/25 04:49:47;;;;;;;2.78;2.00;;;23.90;33.50;;;;;;6122852;28;81406;-62
2022/02/25 04:52:48;;;;;;;7.57;2.85;;;24.00;33.40;;;;;;6138997;28;81206;-62
2022/02/25 04:55:48;;;;;;;4.60;2.70;;;24.00;33.30;;;;;;6148258;28;80912;-63
2022/02/25 04:58:49;;;;;;;3.65;2.70;;;24.00;33.10;;;;;;6139794;28;80326;-63
2022/02/25 05:01:49;;;;;;;5.85;2.33;;;24.00;33.10;;;;;;6139287;28;80379;-64
2022/02/25 05:04:50;;;;;;;3.55;2.50;;;24.00;33.30;;;;;;6144527;28;80510;-63
2022/02/25 05:07:51;;;;;;;4.75;2.45;;;24.00;33.10;;;;;;6153776;28;80364;-64
2022/02/25 05:10:52;;;;;;;4.00;2.78;;;24.00;33.10;;;;;;6137794;28;81382;-62
2022/02/25 05:13:54;;;;;;;5.15;2.40;;;24.00;33.20;;;;;;6132131;28;80596;-63
2022/02/25 05:20:23;;;;;;;5.05;2.55;;;24.10;32.90;;;;;;6130237;28;80478;-63
2022/02/25 05:23:25;;;;;;;3.75;2.10;;;24.10;32.80;;;;;;6125605;28;80551;-62
2022/02/25 05:26:26;;;;;;;4.97;3.08;;;24.10;33.00;;;;;;6130280;28;81219;-61
2022/02/25 05:29:27;;;;;;;4.93;2.47;;;24.10;32.80;;;;;;6131141;28;82405;-64
2022/02/25 05:32:27;;;;;;;3.45;2.15;;;24.00;32.70;;;;;;6136834;28;81638;-63
2022/02/25 05:35:28;;;;;;;3.97;2.60;;;24.00;33.60;;;;;;6155727;28;80530;-63
2022/02/25 05:38:28;;;;;;;4.07;2.60;;;24.00;34.30;;;;;;6120243;28;81526;-61
2022/02/25 05:41:31;;;;;;;7.40;2.35;;;24.00;34.10;;;;;;6136421;28;80496;-62
2022/02/25 05:44:32;;;;;;;3.03;2.08;;;24.10;34.00;;;;;;6136814;28;80455;-63
2022/02/25 05:47:34;;;;;;;5.22;2.72;;;24.10;35.00;;;;;;6136280;28;80436;-63
2022/02/25 05:50:34;;;;;;;8.85;2.45;;;24.00;34.80;;;;;;6135566;28;80221;-63
2022/02/25 05:53:35;;;;;;;3.97;2.40;;;24.10;34.80;;;;;;6122194;28;80309;-63
2022/02/25 05:56:36;;;;;;;5.10;3.22;;;24.10;34.70;;;;;;6124738;28;80820;-62
2022/02/25 05:59:36;;;;;;;4.07;2.47;;;24.10;35.50;;;;;;6142761;28;80375;-63
2022/02/25 06:02:37;;;;;;;5.13;2.92;;;24.10;35.40;;;;;;6139137;28;80841;-63
2022/02/25 06:05:37;;;;;;;6.70;2.80;;;24.10;35.60;;;;;;6132672;28;81043;-60
2022/02/25 06:08:39;;;;;;;9.55;2.70;;;24.10;36.40;;;;;;6138835;28;81729;-59
2022/02/25 06:11:40;;;;;;;4.55;2.42;;;24.10;36.10;;;;;;6154997;28;80449;-63
2022/02/25 06:14:40;;;;;;;6.00;2.45;;;24.10;36.00;;;;;;6140210;28;81104;-62
2022/02/25 06:17:41;;;;;;;10.20;3.08;;;24.10;36.40;;;;;;6151083;28;80515;-61
2022/02/25 06:20:42;;;;;;;6.53;2.83;;;24.00;36.30;;;;;;6148209;28;80910;-61
2022/02/25 06:23:43;;;;;;;3.90;2.67;;;24.10;37.00;;;;;;6131155;28;80729;-62
2022/02/25 06:26:43;;;;;;;8.07;2.70;;;24.10;36.80;;;;;;6137291;28;80575;-61
2022/02/25 06:29:44;;;;;;;7.18;3.17;;;24.10;36.80;;;;;;6135613;28;81547;-62
2022/02/25 06:32:44;;;;;;;7.45;3.25;;;24.10;36.70;;;;;;6137024;28;80810;-62
2022/02/25 06:35:45;;;;;;;7.05;3.08;;;24.10;36.80;;;;;;6153573;28;80363;-60
2022/02/25 06:38:48;;;;;;;6.50;3.50;;;24.10;37.00;;;;;;6153506;28;80484;-61
2022/02/25 06:41:48;;;;;;;5.90;3.20;;;24.10;38.00;;;;;;6140662;28;82117;-61
2022/02/25 06:44:50;;;;;;;5.68;3.35;;;23.90;39.30;;;;;;6153343;28;80360;-61
2022/02/25 06:47:50;;;;;;;7.85;3.35;;;23.80;40.40;;;;;;6148109;28;81202;-62
2022/02/25 06:50:51;;;;;;;6.57;3.33;;;23.70;41.10;;;;;;6128474;28;81595;-59
2022/02/25 06:53:52;;;;;;;9.43;3.92;;;23.70;41.30;;;;;;6131684;28;80566;-62
2022/02/25 06:56:53;;;;;;;5.68;3.65;;;23.60;41.70;;;;;;6135470;28;80348;-61
2022/02/25 06:59:53;;;;;;;8.88;4.22;;;23.60;42.00;;;;;;6121075;28;80224;-61
2022/02/25 07:02:54;;;;;;;7.00;3.67;;;23.50;42.50;;;;;;6122066;28;80416;-61
2022/02/25 07:05:55;;;;;;;6.55;3.47;;;23.50;42.60;;;;;;6150482;28;80354;-62
2022/02/25 07:08:55;;;;;;;7.57;3.72;;;23.50;42.60;;;;;;6152196;28;80551;-61
2022/02/25 07:11:56;;;;;;;11.95;3.78;;;23.40;42.90;;;;;;6130239;28;80724;-60
2022/02/25 07:14:56;;;;;;;7.07;4.00;;;23.30;42.90;;;;;;6135569;28;81004;-60
2022/02/25 07:17:57;;;;;;;11.27;4.15;;;23.30;42.80;;;;;;6128760;28;81393;-60
2022/02/25 07:20:57;;;;;;;8.73;3.45;;;23.40;43.00;;;;;;6133869;28;80936;-60
2022/02/25 07:23:58;;;;;;;7.40;3.28;;;23.40;43.10;;;;;;6128844;28;80548;-57
2022/02/25 07:26:58;;;;;;;8.57;3.70;;;23.40;43.20;;;;;;6131844;28;80719;-60
2022/02/25 07:29:59;;;;;;;6.63;3.40;;;23.20;43.30;;;;;;6105803;28;81633;-59
2022/02/25 07:32:59;;;;;;;6.20;3.47;;;23.20;43.70;;;;;;6126011;28;80385;-60
2022/02/25 07:36:00;;;;;;;3.53;2.45;;;23.10;43.90;;;;;;6130630;28;80415;-59
2022/02/25 07:39:01;;;;;;;7.97;2.92;;;23.10;43.70;;;;;;6129804;28;81228;-58
2022/02/25 07:42:02;;;;;;;6.95;3.45;;;23.10;43.50;;;;;;6134145;28;81494;-60
2022/02/25 07:45:02;;;;;;;7.75;3.17;;;23.10;43.60;;;;;;6134353;28;80336;-59
2022/02/25 07:48:03;;;;;;;5.95;2.83;;;23.00;43.70;;;;;;6131554;28;81858;-61
2022/02/25 07:51:03;;;;;;;3.80;2.47;;;23.00;43.80;;;;;;6127440;28;81238;-61
2022/02/25 07:54:04;;;;;;;4.07;2.80;;;23.00;43.70;;;;;;6124420;28;80941;-62
2022/02/25 07:57:05;;;;;;;6.10;2.45;;;23.00;43.80;;;;;;6131230;28;81396;-60
2022/02/25 08:00:05;;;;;;;5.80;2.60;;;23.00;44.00;;;;;;6128539;28;82119;-62
2022/02/25 08:03:12;;;;;;;2.85;2.22;;;23.00;44.10;;;;;;6125208;28;87660;-61
2022/02/25 08:06:12;;;;;;;4.78;2.55;;;22.90;44.10;;;;;;6129254;28;80399;-61
2022/02/25 08:09:13;;;;;;;7.13;2.13;;;22.90;44.30;;;;;;6128430;28;80320;-60
2022/02/25 08:12:14;;;;;;;2.97;1.90;;;22.90;44.50;;;;;;6149007;28;80772;-61
2022/02/25 08:15:15;;;;;;;2.88;2.03;;;22.90;44.30;;;;;;6136178;28;80649;-62
2022/02/25 08:18:16;;;;;;;4.75;2.30;;;22.90;44.30;;;;;;6134476;28;83425;-60
2022/02/25 08:21:16;;;;;;;6.20;2.88;;;22.90;44.80;;;;;;6140827;28;82504;-59
2022/02/25 08:24:17;;;;;;;4.53;2.35;;;22.90;45.70;;;;;;6130965;28;80754;-60
2022/02/25 08:27:17;;;;;;;5.30;2.30;;;22.90;45.40;;;;;;6126103;28;81678;-60
2022/02/25 08:30:18;;;;;;;4.57;2.10;;;22.80;45.50;;;;;;6136406;28;81127;-61
2022/02/25 08:33:18;;;;;;;5.35;2.83;;;22.80;45.70;;;;;;6130450;28;80794;-59
2022/02/25 08:36:19;;;;;;;13.68;3.33;;;22.90;45.70;;;;;;6134819;28;80235;-60
2022/02/25 08:39:19;;;;;;;13.45;3.20;;;22.90;46.00;;;;;;6134336;28;81929;-61
2022/02/25 08:42:20;;;;;;;7.28;3.03;;;22.90;46.20;;;;;;6143798;28;81765;-60
2022/02/25 08:45:20;;;;;;;7.20;3.08;;;22.90;46.30;;;;;;6129607;28;80672;-60
2022/02/25 08:48:21;;;;;;;8.93;2.70;;;22.80;46.90;;;;;;6123362;28;81506;-60
2022/02/25 08:51:22;;;;;;;8.90;2.88;;;22.80;46.30;;;;;;6135314;28;80504;-60
2022/02/25 08:54:23;;;;;;;6.60;2.92;;;22.80;46.30;;;;;;6128607;28;81348;-59
2022/02/25 08:57:23;;;;;;;6.07;2.53;;;22.80;46.30;;;;;;6134785;28;81506;-60
2022/02/25 09:00:24;;;;;;;12.32;3.58;;;22.80;46.40;;;;;;6135621;28;81073;-61
2022/02/25 09:03:24;;;;;;;9.75;3.35;;;22.70;47.00;;;;;;6135835;28;81224;-60
2022/02/25 09:06:26;;;;;;;6.75;2.78;;;22.80;47.20;;;;;;6129876;28;80748;-59
2022/02/25 09:09:26;;;;;;;8.43;2.70;;;22.80;46.90;;;;;;6138981;28;80340;-58
2022/02/25 09:12:27;;;;;;;8.45;3.13;;;22.80;46.80;;;;;;6134795;28;81324;-58
2022/02/25 09:15:28;;;;;;;7.18;3.13;;;22.80;47.00;;;;;;6154861;28;81664;-59
2022/02/25 09:18:28;;;;;;;9.43;2.80;;;22.80;46.60;;;;;;6151332;28;80415;-58
2022/02/25 09:21:29;;;;;;;8.18;3.00;;;22.80;46.70;;;;;;6154249;28;82201;-58
2022/02/25 09:24:30;;;;;;;13.27;3.50;;;22.80;47.10;;;;;;6153268;28;80896;-60
2022/02/25 09:27:32;;;;;;;11.63;3.47;;;22.80;47.90;;;;;;6141795;28;80852;-60
2022/02/25 09:30:33;;;;;;;13.32;3.28;;;22.90;47.40;;;;;;6136034;28;80268;-60
2022/02/25 09:33:35;;;;;;;11.85;3.58;;;22.90;47.10;;;;;;6125353;28;81566;-60
2022/02/25 09:36:35;;;;;;;9.70;3.40;;;22.90;47.00;;;;;;6126973;28;81536;-60
2022/02/25 09:39:36;;;;;;;9.65;3.17;;;22.90;46.80;;;;;;6122343;28;80468;-59
2022/02/25 09:42:36;;;;;;;13.15;3.45;;;22.90;46.80;;;;;;6136656;28;82882;-59
2022/02/25 09:45:37;;;;;;;8.65;3.53;;;22.90;46.70;;;;;;6129908;28;81783;-59
2022/02/25 09:48:39;;;;;;;9.85;3.70;;;22.90;47.10;;;;;;6123690;28;80670;-61
2022/02/25 09:51:40;;;;;;;8.25;3.28;;;22.80;47.00;;;;;;6135142;28;83382;-62
2022/02/25 09:54:40;;;;;;;9.50;4.03;;;22.90;47.40;;;;;;6125774;28;80691;-61
2022/02/25 09:57:41;;;;;;;14.63;4.28;;;22.90;48.90;;;;;;6125235;28;81191;-61
2022/02/25 10:00:43;;;;;;;15.35;4.03;;;23.00;50.50;;;;;;6128729;28;80583;-61
2022/02/25 10:03:43;;;;;;;7.90;3.20;;;22.90;50.10;;;;;;6125799;28;81152;-61
2022/02/25 10:06:44;;;;;;;8.20;3.60;;;22.90;50.20;;;;;;6126687;28;80530;-62
2022/02/25 10:09:45;;;;;;;10.70;3.65;;;22.90;50.00;;;;;;6130988;28;81562;-63
2022/02/25 10:12:45;;;;;;;12.23;3.95;;;22.90;49.60;;;;;;6132671;28;80203;-62
2022/02/25 10:15:46;;;;;;;10.50;3.20;;;23.00;49.40;;;;;;6136392;28;81068;-62
2022/02/25 10:18:46;;;;;;;13.52;4.40;;;23.00;49.30;;;;;;6135788;28;81273;-61
2022/02/25 10:21:47;;;;;;;11.25;3.90;;;23.00;49.00;;;;;;6136323;28;81457;-63
2022/02/25 10:24:47;;;;;;;9.35;3.90;;;23.20;48.50;;;;;;6125712;28;80337;-62
2022/02/25 10:27:51;;;;;;;10.68;3.75;;;23.40;47.80;;;;;;6125585;28;80719;-62
2022/02/25 10:30:51;;;;;;;11.20;3.70;;;23.60;46.80;;;;;;6123053;28;81177;-62
2022/02/25 10:33:52;;;;;;;7.30;3.10;;;23.60;45.60;;;;;;6123879;28;86068;-61
2022/02/25 10:36:53;;;;;;;8.57;3.35;;;23.70;44.30;;;;;;6127160;28;80904;-62
2022/02/25 10:39:54;;;;;;;5.32;2.95;;;23.70;43.10;;;;;;6127115;28;80424;-63
2022/02/25 10:42:55;;;;;;;7.95;2.95;;;23.70;41.30;;;;;;6122358;28;81790;-62
2022/02/25 10:45:55;;;;;;;6.57;3.42;;;23.70;41.20;;;;;;6125943;28;81673;-64
2022/02/25 10:48:56;;;;;;;5.97;3.05;;;23.80;40.50;;;;;;6125676;28;80775;-69
2022/02/25 10:51:56;;;;;;;6.60;3.72;;;23.70;40.00;;;;;;6123686;28;81569;-65
2022/02/25 10:54:57;;;;;;;5.70;3.78;;;23.60;38.80;;;;;;6135971;28;80813;-65
2022/02/25 10:57:57;;;;;;;5.03;3.35;;;23.60;38.80;;;;;;6130521;28;81267;-62
2022/02/25 11:00:58;;;;;;;6.53;3.60;;;23.60;38.60;;;;;;6118868;28;80401;-61
2022/02/25 11:03:58;;;;;;;6.95;3.50;;;23.60;38.70;;;;;;6122136;28;83802;-62
2022/02/25 11:06:59;;;;;;;5.18;3.10;;;23.70;38.50;;;;;;6116976;28;81592;-62
2022/02/25 11:09:59;;;;;;;6.30;3.15;;;23.70;38.40;;;;;;6123629;28;80408;-62
2022/02/25 11:13:01;;;;;;;8.13;2.83;;;23.70;38.50;;;;;;6119142;28;80310;-61
2022/02/25 11:16:01;;;;;;;6.75;3.22;;;23.70;38.70;;;;;;6128814;28;80355;-61
2022/02/25 11:19:03;;;;;;;36.60;19.45;;;23.70;38.80;;;;;;6122466;28;80826;-62
2022/02/25 11:22:05;;;;;;;25.13;9.20;;;23.70;39.50;;;;;;6114835;28;85109;-61
2022/02/25 11:25:05;;;;;;;63.75;31.25;;;23.70;39.50;;;;;;6119038;28;83099;-61
2022/02/25 11:28:06;;;;;;;74.85;35.42;;;23.70;40.10;;;;;;6115536;28;84358;-62
2022/02/25 11:31:06;;;;;;;103.15;60.03;;;23.70;40.20;;;;;;6117196;28;83129;-61
2022/02/25 11:34:07;;;;;;;122.53;67.47;;;23.70;41.30;;;;;;6119840;28;82976;-61
2022/02/25 11:37:08;;;;;;;149.52;82.03;;;23.70;41.10;;;;;;6130779;28;83353;-62
2022/02/25 11:40:09;;;;;;;170.25;87.00;;;23.70;41.60;;;;;;6134242;28;84278;-62
2022/02/25 11:43:10;;;;;;;155.80;84.03;;;23.70;41.50;;;;;;6142118;28;83154;-63
2022/02/25 11:46:10;;;;;;;150.93;79.25;;;23.70;41.30;;;;;;6130766;28;83475;-63
2022/02/25 11:49:11;;;;;;;142.35;76.80;;;23.80;41.50;;;;;;6125611;28;82922;-62
2022/02/25 11:52:11;;;;;;;141.52;72.38;;;23.80;41.10;;;;;;6125005;28;85050;-61
2022/02/25 11:55:12;;;;;;;145.15;69.50;;;23.90;41.40;;;;;;6124031;28;82956;-61
2022/02/25 11:58:13;;;;;;;130.40;63.00;;;24.10;40.80;;;;;;6119876;28;84304;-63
2022/02/25 12:01:13;;;;;;;105.90;56.50;;;24.20;40.50;;;;;;6119181;28;82966;-64
2022/02/25 12:04:14;;;;;;;97.35;51.05;;;24.40;40.30;;;;;;6129893;28;83973;-63
2022/02/25 12:07:15;;;;;;;91.38;49.92;;;24.50;39.70;;;;;;6129481;28;83792;-62
2022/02/25 12:10:16;;;;;;;91.07;46.60;;;24.60;39.90;;;;;;6120639;28;83318;-64
2022/02/25 12:13:17;;;;;;;81.78;43.72;;;24.70;39.40;;;;;;6123931;28;84139;-63
2022/02/25 12:16:17;;;;;;;84.82;40.53;;;24.80;39.70;;;;;;6139281;28;84144;-63
2022/02/25 12:19:18;;;;;;;76.07;40.78;;;24.80;39.80;;;;;;6131961;28;84307;-63
2022/02/25 12:22:19;;;;;;;67.70;37.85;;;24.90;39.50;;;;;;6120572;28;84016;-63
2022/02/25 12:25:19;;;;;;;67.70;33.47;;;24.90;39.80;;;;;;6125759;28;83484;-64
2022/02/25 12:28:20;;;;;;;62.45;31.80;;;25.00;39.90;;;;;;6127110;28;82821;-63
2022/02/25 12:31:20;;;;;;;60.25;27.52;;;25.10;39.90;;;;;;6125666;28;83163;-64
2022/02/25 12:34:21;;;;;;;45.78;25.52;;;25.10;39.70;;;;;;6121682;28;83489;-64
2022/02/25 12:37:21;;;;;;;40.80;22.35;;;25.20;39.70;;;;;;6125203;28;84266;-63
2022/02/25 12:40:22;;;;;;;39.88;21.85;;;25.30;39.70;;;;;;6122364;28;83486;-63
2022/02/25 12:43:22;;;;;;;31.80;18.50;;;25.30;39.60;;;;;;6118541;28;83156;-63
2022/02/25 12:46:23;;;;;;;27.55;16.38;;;25.40;39.40;;;;;;6118758;28;83329;-62
2022/02/25 12:49:24;;;;;;;29.88;15.00;;;25.40;39.50;;;;;;6112508;28;83454;-61
2022/02/25 12:52:24;;;;;;;32.25;15.00;;;25.30;39.00;;;;;;6129619;28;83546;-62
2022/02/25 12:55:25;;;;;;;31.05;14.32;;;25.30;38.90;;;;;;6148295;28;84350;-64
2022/02/25 12:58:25;;;;;;;22.00;11.18;;;25.30;38.70;;;;;;6134502;28;84304;-63
2022/02/25 13:01:26;;;;;;;17.40;10.32;;;25.20;38.60;;;;;;6133735;28;83349;-62
2022/02/25 13:04:27;;;;;;;18.45;10.32;;;25.30;38.10;;;;;;6111601;28;84350;-62
2022/02/25 13:07:27;;;;;;;16.95;9.27;;;25.30;38.30;;;;;;6119022;28;82913;-62
2022/02/25 13:10:28;;;;;;;15.95;8.77;;;25.30;38.10;;;;;;6143876;28;82906;-61
2022/02/25 13:13:29;;;;;;;13.02;7.80;;;25.40;38.00;;;;;;6141487;28;81504;-61
2022/02/25 13:16:29;;;;;;;18.23;7.63;;;25.40;37.80;;;;;;6122579;28;81645;-62
2022/02/25 13:19:31;;;;;;;15.80;7.65;;;25.50;37.70;;;;;;6123632;28;81451;-63
2022/02/25 13:22:31;;;;;;;11.63;6.35;;;25.50;37.60;;;;;;6123180;28;81413;-62
2022/02/25 13:25:32;;;;;;;11.25;6.13;;;25.60;37.40;;;;;;6131141;28;86873;-61
2022/02/25 13:28:32;;;;;;;11.95;5.88;;;25.60;37.20;;;;;;6121588;28;80696;-61
2022/02/25 13:31:33;;;;;;;12.85;5.72;;;25.60;36.80;;;;;;6120769;28;83918;-62
2022/02/25 13:34:33;;;;;;;9.68;4.97;;;25.60;36.60;;;;;;6118711;28;80532;-62
2022/02/25 13:37:34;;;;;;;8.35;5.45;;;25.60;36.50;;;;;;6117136;28;80331;-62
2022/02/25 13:40:34;;;;;;;8.52;4.97;;;25.70;36.20;;;;;;6123054;28;80480;-62
2022/02/25 13:43:35;;;;;;;8.13;5.30;;;25.70;35.90;;;;;;6128090;28;81560;-62
2022/02/25 13:46:36;;;;;;;15.07;5.35;;;25.70;36.30;;;;;;6132052;28;81022;-64
2022/02/25 13:52:56;;;;;;;7.93;4.85;;;25.50;36.10;;;;;;6124651;28;80441;-61
2022/02/25 13:55:56;;;;;;;9.48;4.78;;;25.50;36.10;;;;;;6121192;28;81360;-61
2022/02/25 13:58:57;;;;;;;6.22;3.92;;;25.40;36.00;;;;;;6120238;28;80463;-62
2022/02/25 14:01:58;;;;;;;6.97;4.47;;;25.40;36.00;;;;;;6142418;28;81263;-62
2022/02/25 14:04:58;;;;;;;7.63;4.30;;;25.40;36.60;;;;;;6138536;28;81456;-62
2022/02/25 14:07:59;;;;;;;7.40;4.65;;;25.30;36.00;;;;;;6136835;28;82266;-61
2022/02/25 14:11:00;;;;;;;6.72;3.83;;;25.20;36.10;;;;;;6136651;28;81585;-60
2022/02/25 14:14:01;;;;;;;6.82;4.20;;;25.30;36.30;;;;;;6135131;28;80898;-60
2022/02/25 14:17:01;;;;;;;8.38;3.95;;;25.30;35.80;;;;;;6121225;28;80341;-63
2022/02/25 14:20:03;;;;;;;8.80;4.53;;;25.30;35.60;;;;;;6128141;28;80735;-62
2022/02/25 14:23:03;;;;;;;5.63;3.60;;;25.30;35.80;;;;;;6122579;28;80323;-63
2022/02/25 14:26:04;;;;;;;7.60;3.75;;;25.20;36.20;;;;;;6138824;28;80873;-63
2022/02/25 14:29:04;;;;;;;8.40;4.13;;;25.20;35.90;;;;;;6134062;28;83079;-63
2022/02/25 14:32:05;;;;;;;8.88;4.57;;;25.20;35.90;;;;;;6144163;28;82583;-63
2022/02/25 14:35:05;;;;;;;8.07;4.13;;;25.10;35.70;;;;;;6146201;28;81519;-64
2022/02/25 14:38:06;;;;;;;11.77;4.32;;;25.20;35.70;;;;;;6137630;28;81236;-63
2022/02/25 14:41:07;;;;;;;9.23;3.95;;;25.20;35.80;;;;;;6137745;28;80677;-63
2022/02/25 14:44:08;;;;;;;7.00;3.75;;;25.30;35.70;;;;;;6132504;28;81848;-63
2022/02/25 14:47:08;;;;;;;6.90;4.20;;;25.20;35.80;;;;;;6128928;28;80813;-64
2022/02/25 14:50:09;;;;;;;10.75;3.22;;;25.30;35.50;;;;;;6134036;28;80358;-64
2022/02/25 14:53:09;;;;;;;9.18;4.20;;;25.10;35.40;;;;;;6146368;28;81522;-64
2022/02/25 14:56:10;;;;;;;10.18;3.83;;;25.10;35.40;;;;;;6135328;28;81552;-63
2022/02/25 14:59:11;;;;;;;6.60;3.83;;;25.00;35.10;;;;;;6134817;28;80950;-72
2022/02/25 15:02:11;;;;;;;7.25;3.50;;;24.90;35.40;;;;;;6131096;28;80403;-65
2022/02/25 15:05:12;;;;;;;8.93;3.92;;;24.90;35.30;;;;;;6133717;28;85826;-64
2022/02/25 15:08:12;;;;;;;10.25;3.88;;;24.90;35.40;;;;;;6127712;28;81116;-63
2022/02/25 15:11:13;;;;;;;5.57;3.65;;;24.90;35.50;;;;;;6147666;28;81875;-63
2022/02/25 15:14:15;;;;;;;6.68;2.78;;;24.80;35.40;;;;;;6139501;28;80818;-64
2022/02/25 15:17:16;;;;;;;6.90;3.78;;;24.80;35.40;;;;;;6135237;28;81483;-63
2022/02/25 15:20:17;;;;;;;7.32;3.25;;;24.80;35.40;;;;;;6121544;28;87669;-64
2022/02/25 15:23:17;;;;;;;5.53;3.08;;;24.80;35.30;;;;;;6133921;28;82006;-64
2022/02/25 15:26:18;;;;;;;9.32;3.65;;;24.90;35.20;;;;;;6141399;28;80720;-62
2022/02/25 15:29:18;;;;;;;8.13;3.40;;;24.90;35.40;;;;;;6137195;28;81300;-64
2022/02/25 15:32:19;;;;;;;6.60;3.08;;;24.80;35.50;;;;;;6136485;28;80607;-64
2022/02/25 15:35:20;;;;;;;9.80;3.33;;;24.70;35.60;;;;;;6126972;28;80476;-64
2022/02/25 15:38:20;;;;;;;7.55;3.67;;;24.70;35.70;;;;;;6126930;28;81593;-64
2022/02/25 15:41:23;;;;;;;4.75;2.88;;;24.70;35.90;;;;;;6132586;28;81358;-65